createdAt,value
2022-08-12T00:00:00.091Z,100809.69
2022-08-12T00:02:45.424Z,100805.09
2022-08-12T00:05:32.345Z,100812.50
2022-08-12T00:08:17.771Z,100818.38
2022-08-12T00:11:16.829Z,100806.69
2022-08-12T00:14:02.249Z,100815.09
2022-08-12T00:16:48.601Z,100814.94
2022-08-12T00:19:34.613Z,100800.06
2022-08-12T00:22:20.227Z,100816.81
2022-08-12T00:25:06.286Z,100807.94
2022-08-12T00:27:52.280Z,100814.75
2022-08-12T00:30:37.741Z,100808.03
2022-08-12T00:33:23.224Z,100808.31
2022-08-12T00:36:32.008Z,100812.47
2022-08-12T00:39:18.583Z,100814.75
2022-08-12T00:42:04.393Z,100817.84
2022-08-12T00:44:31.363Z,100817.16
2022-08-12T00:47:00.364Z,100830.28
2022-08-12T00:49:29.059Z,100825.81
2022-08-12T00:52:07.406Z,100821.41
2022-08-12T00:54:35.364Z,100823.25
2022-08-12T00:57:08.527Z,100818.28
2022-08-12T00:59:36.600Z,100823.06
2022-08-12T01:02:11.143Z,100821.22
2022-08-12T01:04:58.692Z,100808.09
2022-08-12T01:07:46.702Z,100818.38
2022-08-12T01:10:33.352Z,100813.34
2022-08-12T01:13:18.510Z,100825.06
2022-08-12T01:15:50.467Z,100822.50
2022-08-12T01:18:19.786Z,100824.19
2022-08-12T01:21:00.516Z,100816.63
2022-08-12T01:23:36.381Z,100821.22
2022-08-12T01:26:05.008Z,100821.19
2022-08-12T01:28:33.844Z,100826.97
2022-08-12T01:31:05.954Z,100829.28
2022-08-12T01:33:41.382Z,100824.56
2022-08-12T01:36:11.232Z,100827.97
2022-08-12T01:38:38.591Z,100825.50
2022-08-12T01:41:05.841Z,100808.88
2022-08-12T01:43:33.378Z,100833.28
2022-08-12T01:46:31.085Z,100824.03
2022-08-12T01:49:11.607Z,100825.81
2022-08-12T01:52:21.022Z,100822.25
2022-08-12T01:54:38.586Z,100813.59
2022-08-12T01:57:11.241Z,100815.56
2022-08-12T01:59:53.465Z,100822.25
2022-08-12T02:02:46.400Z,100811.78
2022-08-12T02:05:40.952Z,100812.06
2022-08-12T02:08:33.300Z,100799.25
2022-08-12T02:11:24.013Z,100796.66
2022-08-12T02:14:13.252Z,100803.16
2022-08-12T02:16:46.748Z,100789.47
2022-08-12T02:19:29.967Z,100781.44
2022-08-12T02:22:21.069Z,100776.56
2022-08-12T02:24:50.034Z,100782.37
2022-08-12T02:27:19.595Z,100786.22
2022-08-12T02:29:47.621Z,100773.38
2022-08-12T02:32:14.783Z,100775.25
2022-08-12T02:34:43.954Z,100774.50
2022-08-12T02:37:15.577Z,100758.72
2022-08-12T02:39:48.386Z,100760.94
2022-08-12T02:42:16.868Z,100777.16
2022-08-12T02:44:45.780Z,100773.25
2022-08-12T02:47:59.941Z,100754.09
2022-08-12T02:50:03.892Z,100774.97
2022-08-12T02:52:32.358Z,100773.72
2022-08-12T02:55:28.575Z,100767.06
2022-08-12T02:58:12.693Z,100768.75
2022-08-12T03:00:43.557Z,100761.63
2022-08-12T03:03:13.112Z,100751.63
2022-08-12T03:06:07.100Z,100759.63
2022-08-12T03:08:41.162Z,100761.03
2022-08-12T03:11:23.642Z,100754.03
2022-08-12T03:13:59.170Z,100756.53
2022-08-12T03:16:30.261Z,100761.63
2022-08-12T03:19:00.407Z,100754.56
2022-08-12T03:21:58.035Z,100758.72
2022-08-12T03:24:18.550Z,100757.44
2022-08-12T03:26:47.589Z,100768.53
2022-08-12T03:29:17.054Z,100773.38
2022-08-12T03:31:44.147Z,100766.41
2022-08-12T03:34:14.390Z,100769.88
2022-08-12T03:36:42.236Z,100772.31
2022-08-12T03:39:17.596Z,100768.00
2022-08-12T03:42:07.659Z,100768.75
2022-08-12T03:45:08.867Z,100774.38
2022-08-12T03:48:13.384Z,100775.97
2022-08-12T03:51:04.945Z,100770.47
2022-08-12T03:53:50.849Z,100769.34
2022-08-12T03:56:36.584Z,100775.50
2022-08-12T03:59:23.720Z,100771.09
2022-08-12T04:01:57.540Z,100769.75
2022-08-12T04:04:34.225Z,100770.09
2022-08-12T04:07:03.631Z,100756.72
2022-08-12T04:09:31.048Z,100765.56
2022-08-12T04:12:16.362Z,100770.00
2022-08-12T04:14:43.212Z,100768.63
2022-08-12T04:17:10.205Z,100776.66
2022-08-12T04:19:37.490Z,100772.78
2022-08-12T04:22:07.401Z,100770.34
2022-08-12T04:24:36.002Z,100767.09
2022-08-12T04:27:10.266Z,100758.97
2022-08-12T04:30:31.511Z,100769.56
2022-08-12T04:32:26.241Z,100773.53
2022-08-12T04:34:54.121Z,100764.06
2022-08-12T04:37:21.118Z,100769.56
2022-08-12T04:39:48.741Z,100773.31
2022-08-12T04:42:16.235Z,100774.75
2022-08-12T04:44:43.359Z,100753.22
2022-08-12T04:47:14.313Z,100733.59
2022-08-12T04:49:44.082Z,100701.91
2022-08-12T04:52:11.550Z,100705.66
2022-08-12T04:54:38.571Z,100703.66
2022-08-12T04:57:09.858Z,100699.00
2022-08-12T04:59:48.358Z,100641.13
2022-08-12T05:02:31.502Z,100633.47
2022-08-12T05:05:00.874Z,100644.09
2022-08-12T05:07:34.269Z,100648.56
2022-08-12T05:10:12.514Z,100638.47
2022-08-12T05:12:44.923Z,100616.81
2022-08-12T05:15:26.713Z,100622.22
2022-08-12T05:17:55.959Z,100619.38
2022-08-12T05:20:25.840Z,100597.72
2022-08-12T05:23:13.016Z,100618.69
2022-08-12T05:25:43.171Z,100675.25
2022-08-12T05:28:10.962Z,100679.47
2022-08-12T05:30:37.826Z,100679.81
2022-08-12T05:33:05.945Z,100715.47
2022-08-12T05:35:40.221Z,100720.78
2022-08-12T05:38:30.345Z,100724.69
2022-08-12T05:40:57.479Z,100724.16
2022-08-12T05:43:24.931Z,100736.22
2022-08-12T05:45:51.787Z,100737.97
2022-08-12T05:48:19.474Z,100733.72
2022-08-12T05:50:46.487Z,100744.25
2022-08-12T05:53:13.590Z,100738.44
2022-08-12T05:55:40.831Z,100737.84
2022-08-12T05:58:10.416Z,100737.53
2022-08-12T06:00:38.108Z,100725.53
2022-08-12T06:03:06.176Z,100723.16
2022-08-12T06:05:55.447Z,100733.31
2022-08-12T06:08:24.869Z,100720.16
2022-08-12T06:10:52.279Z,100709.03
2022-08-12T06:13:25.679Z,100717.06
2022-08-12T06:16:07.407Z,100709.31
2022-08-12T06:18:34.915Z,100706.78
2022-08-12T06:21:02.552Z,100700.66
2022-08-12T06:23:30.215Z,100692.06
2022-08-12T06:25:57.704Z,100711.09
2022-08-12T06:28:25.366Z,100701.34
2022-08-12T06:31:22.223Z,100713.91
2022-08-12T06:33:55.502Z,100718.53
2022-08-12T06:36:29.469Z,100708.44
2022-08-12T06:38:57.524Z,100696.38
2022-08-12T06:42:04.941Z,100695.06
2022-08-12T06:44:29.911Z,100683.22
2022-08-12T06:46:58.487Z,100691.84
2022-08-12T06:49:25.877Z,100687.25
2022-08-12T06:51:56.138Z,100687.56
2022-08-12T06:54:31.014Z,100689.88
2022-08-12T06:57:03.693Z,100672.44
2022-08-12T06:59:32.586Z,100675.66
2022-08-12T07:01:59.471Z,100652.66
2022-08-12T07:04:36.399Z,100669.56
2022-08-12T07:07:05.933Z,100664.81
2022-08-12T07:09:59.497Z,100668.78
2022-08-12T07:12:20.041Z,100661.00
2022-08-12T07:14:51.580Z,100650.09
2022-08-12T07:17:18.872Z,100657.56
2022-08-12T07:19:48.618Z,100658.97
2022-08-12T07:22:16.577Z,100654.19
2022-08-12T07:25:03.988Z,100636.44
2022-08-12T07:27:31.138Z,100650.22
2022-08-12T07:30:04.712Z,100662.69
2022-08-12T07:32:32.255Z,100642.94
2022-08-12T07:34:59.048Z,100652.28
2022-08-12T07:37:25.981Z,100653.22
2022-08-12T07:40:00.625Z,100640.84
2022-08-12T07:42:29.524Z,100641.94
2022-08-12T07:44:56.767Z,100624.81
2022-08-12T07:47:24.665Z,100640.59
2022-08-12T07:50:04.830Z,100641.06
2022-08-12T07:52:38.435Z,100639.66
2022-08-12T07:55:06.223Z,100637.81
2022-08-12T07:57:33.523Z,100635.09
2022-08-12T08:00:06.197Z,100624.97
2022-08-12T08:02:33.805Z,100629.19
2022-08-12T08:05:00.948Z,100615.12
2022-08-12T08:07:30.834Z,100607.91
2022-08-12T08:10:00.590Z,100624.38
2022-08-12T08:12:47.502Z,100627.16
2022-08-12T08:15:15.777Z,100622.09
2022-08-12T08:18:02.739Z,100614.78
2022-08-12T08:20:41.269Z,100617.06
2022-08-12T08:23:15.764Z,100599.97
2022-08-12T08:25:43.052Z,100610.75
2022-08-12T08:28:12.629Z,100603.44
2022-08-12T08:30:42.982Z,100596.31
2022-08-12T08:33:20.146Z,100599.87
2022-08-12T08:35:50.137Z,100599.94
2022-08-12T08:38:33.039Z,100603.84
2022-08-12T08:42:17.444Z,100602.75
2022-08-12T08:44:11.235Z,100597.63
2022-08-12T08:46:39.726Z,100586.25
2022-08-12T08:49:07.053Z,100585.16
2022-08-12T08:51:34.620Z,100591.00
2022-08-12T08:54:01.625Z,100582.38
2022-08-12T08:56:31.254Z,100583.69
2022-08-12T08:58:58.305Z,100580.22
2022-08-12T09:01:26.289Z,100582.66
2022-08-12T09:05:08.432Z,100587.41
2022-08-12T09:06:53.704Z,100587.47
2022-08-12T09:09:21.447Z,100573.22
2022-08-12T09:12:11.697Z,100588.03
2022-08-12T09:14:47.046Z,100575.78
2022-08-12T09:17:21.267Z,100579.37
2022-08-12T09:19:55.214Z,100565.03
2022-08-12T09:22:29.314Z,100555.44
2022-08-12T09:24:59.806Z,100595.00
2022-08-12T09:28:03.660Z,100588.56
2022-08-12T09:30:16.171Z,100546.53
2022-08-12T09:33:05.252Z,100545.47
2022-08-12T09:35:33.689Z,100544.16
2022-08-12T09:38:25.590Z,100551.00
2022-08-12T09:42:09.088Z,100541.41
2022-08-12T09:44:05.490Z,100541.31
2022-08-12T09:46:34.583Z,100514.81
2022-08-12T09:49:04.098Z,100522.34
2022-08-12T09:51:43.674Z,100535.94
2022-08-12T09:54:34.573Z,100539.03
2022-08-12T09:57:03.615Z,100549.72
2022-08-12T10:00:17.091Z,100531.09
2022-08-12T10:02:59.338Z,100507.31
2022-08-12T10:06:20.529Z,100516.44
2022-08-12T10:08:17.728Z,100512.06
2022-08-12T10:11:06.601Z,100520.16
2022-08-12T10:13:44.017Z,100517.91
2022-08-12T10:16:43.756Z,100492.56
2022-08-12T10:19:17.111Z,100515.72
2022-08-12T10:21:45.231Z,100506.00
2022-08-12T10:24:20.109Z,100529.47
2022-08-12T10:27:06.313Z,100513.84
2022-08-12T10:30:39.353Z,100508.81
2022-08-12T10:32:44.851Z,100524.84
2022-08-12T10:35:16.485Z,100521.25
2022-08-12T10:38:34.422Z,100520.66
2022-08-12T10:40:33.937Z,100545.87
2022-08-12T10:43:20.477Z,100540.41
2022-08-12T10:45:49.801Z,100533.38
2022-08-12T10:48:26.953Z,100536.56
2022-08-12T10:52:03.721Z,100534.84
2022-08-12T10:54:00.842Z,100539.31
2022-08-12T10:56:34.413Z,100533.59
2022-08-12T10:59:05.631Z,100528.47
2022-08-12T11:04:31.225Z,100520.59
2022-08-12T11:04:41.454Z,100519.75
2022-08-12T11:08:34.868Z,100522.56
2022-08-12T11:10:02.789Z,100516.31
2022-08-12T11:12:55.609Z,100526.41
2022-08-12T11:15:24.189Z,100537.41
2022-08-12T11:18:03.101Z,100528.78
2022-08-12T11:20:31.181Z,100529.38
2022-08-12T11:23:04.180Z,100533.56
2022-08-12T11:25:42.270Z,100553.44
2022-08-12T11:28:33.206Z,100539.47
2022-08-12T11:31:02.614Z,100561.22
2022-08-12T11:34:05.233Z,100546.84
2022-08-12T11:36:18.317Z,100536.59
2022-08-12T11:38:50.709Z,100558.78
2022-08-12T11:41:30.910Z,100547.97
2022-08-12T11:44:12.665Z,100550.44
2022-08-12T11:46:52.695Z,100545.50
2022-08-12T11:49:31.264Z,100539.84
2022-08-12T11:52:03.179Z,100545.72
2022-08-12T11:54:30.985Z,100540.22
2022-08-12T11:57:00.500Z,100536.66
2022-08-12T12:02:20.807Z,100531.44
2022-08-12T12:04:53.022Z,100535.00
2022-08-12T12:08:35.986Z,100527.06
2022-08-12T12:10:18.437Z,100526.47
2022-08-12T12:12:50.017Z,100537.16
2022-08-12T12:15:24.725Z,100534.53
2022-08-12T12:17:55.624Z,100515.47
2022-08-12T12:20:26.170Z,100500.31
2022-08-12T12:22:57.319Z,100499.19
2022-08-12T12:25:59.642Z,100483.06
2022-08-12T12:28:37.718Z,100467.78
2022-08-12T12:30:58.493Z,100488.59
2022-08-12T12:33:26.504Z,100460.56
2022-08-12T12:36:20.359Z,100455.84
2022-08-12T12:38:50.039Z,100457.28
2022-08-12T12:41:20.590Z,100434.81
2022-08-12T12:43:47.589Z,100439.63
2022-08-12T12:46:30.263Z,100430.31
2022-08-12T12:48:57.153Z,100441.06
2022-08-12T12:51:55.156Z,100424.91
2022-08-12T12:54:12.455Z,100425.50
2022-08-12T12:56:42.329Z,100440.19
2022-08-12T12:59:55.810Z,100427.34
2022-08-12T13:01:56.888Z,100435.50
2022-08-12T13:04:24.685Z,100415.16
2022-08-12T13:06:52.327Z,100423.06
2022-08-12T13:09:22.125Z,100408.09
2022-08-12T13:11:53.506Z,100417.34
2022-08-12T13:14:27.946Z,100392.53
2022-08-12T13:16:57.760Z,100414.00
2022-08-12T13:19:37.680Z,100410.78
2022-08-12T13:22:20.041Z,100397.75
2022-08-12T13:24:54.554Z,100381.31
2022-08-12T13:27:22.462Z,100387.91
2022-08-12T13:29:49.478Z,100391.44
2022-08-12T13:32:30.773Z,100391.38
2022-08-12T13:35:03.894Z,100396.91
2022-08-12T13:37:44.158Z,100357.91
2022-08-12T13:40:20.638Z,100367.28
2022-08-12T13:42:53.255Z,100359.31
2022-08-12T13:45:20.300Z,100369.22
2022-08-12T13:48:06.725Z,100362.16
2022-08-12T13:50:41.166Z,100342.66
2022-08-12T13:53:24.587Z,100363.44
2022-08-12T13:56:02.056Z,100355.66
2022-08-12T13:58:30.712Z,100354.16
2022-08-12T14:00:58.630Z,100356.19
2022-08-12T14:03:28.142Z,100361.56
2022-08-12T14:05:59.409Z,100360.06
2022-08-12T14:08:34.465Z,100359.44
2022-08-12T14:11:02.150Z,100350.84
2022-08-12T14:14:03.190Z,100347.28
2022-08-12T14:16:37.643Z,100344.84
2022-08-12T14:19:21.816Z,100349.22
2022-08-12T14:21:59.191Z,100356.66
2022-08-12T14:24:35.074Z,100362.00
2022-08-12T14:27:03.170Z,100360.22
2022-08-12T14:29:38.105Z,100351.50
2022-08-12T14:32:18.234Z,100345.34
2022-08-12T14:34:51.345Z,100358.47
2022-08-12T14:37:56.605Z,100371.22
2022-08-12T14:40:07.307Z,100365.50
2022-08-12T14:42:34.286Z,100358.50
2022-08-12T14:45:02.224Z,100366.72
2022-08-12T14:47:35.519Z,100350.44
2022-08-12T14:50:58.350Z,100319.22
2022-08-12T14:58:32.063Z,100351.06
2022-08-12T15:01:21.160Z,100352.34
2022-08-12T15:03:52.386Z,100344.72
2022-08-12T15:06:44.666Z,100337.41
2022-08-12T15:09:12.120Z,100333.47
2022-08-12T15:11:55.621Z,100338.69
2022-08-12T15:14:30.280Z,100342.13
2022-08-12T15:17:00.499Z,100332.94
2022-08-12T15:20:30.898Z,100325.06
2022-08-12T15:22:39.365Z,100323.06
2022-08-12T15:25:07.429Z,100312.22
2022-08-12T15:28:11.105Z,100319.03
2022-08-12T15:30:30.709Z,100317.09
2022-08-12T15:32:58.104Z,100315.66
2022-08-12T15:35:31.167Z,100313.56
2022-08-12T15:38:10.342Z,100313.78
2022-08-12T15:40:48.458Z,100312.31
2022-08-12T15:43:51.593Z,100311.91
2022-08-12T15:46:06.250Z,100301.50
2022-08-12T15:48:33.216Z,100307.66
2022-08-12T15:51:04.045Z,100307.66
2022-08-12T15:53:53.377Z,100295.81
2022-08-12T15:56:29.444Z,100299.19
2022-08-12T15:59:00.721Z,100291.31
2022-08-12T16:01:35.711Z,100285.78
2022-08-12T16:04:05.178Z,100271.78
2022-08-12T16:09:56.449Z,100280.06
2022-08-12T16:12:11.253Z,100282.00
2022-08-12T16:14:39.376Z,100272.66
2022-08-12T16:17:08.762Z,100279.25
2022-08-12T16:20:03.664Z,100298.53
2022-08-12T16:22:24.504Z,100293.47
2022-08-12T16:24:54.102Z,100297.69
2022-08-12T16:27:25.597Z,100286.69
2022-08-12T16:29:57.421Z,100285.41
2022-08-12T16:32:31.755Z,100281.59
2022-08-12T16:35:00.072Z,100290.06
2022-08-12T16:38:04.888Z,100284.34
2022-08-12T16:40:15.760Z,100294.50
2022-08-12T16:42:53.655Z,100283.66
2022-08-12T16:46:03.974Z,100288.97
2022-08-12T16:48:34.182Z,100282.56
2022-08-12T16:51:09.487Z,100288.31
2022-08-12T16:53:45.106Z,100289.75
2022-08-12T16:56:14.722Z,100283.81
2022-08-12T16:58:42.255Z,100291.22
2022-08-12T17:01:14.590Z,100292.25
2022-08-12T17:03:52.445Z,100298.75
2022-08-12T17:18:42.719Z,100289.28
2022-08-12T17:21:07.519Z,100285.44
2022-08-12T17:23:48.582Z,100294.06
2022-08-12T17:26:22.263Z,100304.38
2022-08-12T17:28:52.435Z,100315.91
2022-08-12T17:32:00.223Z,100312.47
2022-08-12T17:34:17.325Z,100311.75
2022-08-12T17:36:44.680Z,100321.59
2022-08-12T17:39:15.785Z,100320.03
2022-08-12T17:41:57.173Z,100325.88
2022-08-12T17:44:24.455Z,100329.81
2022-08-12T17:46:53.880Z,100333.72
2022-08-12T17:50:03.042Z,100336.50
2022-08-12T17:52:08.864Z,100336.63
2022-08-12T17:54:37.730Z,100333.53
2022-08-12T17:57:16.072Z,100336.97
2022-08-12T17:59:49.452Z,100325.00
2022-08-12T18:02:25.558Z,100337.19
2022-08-12T18:05:04.989Z,100346.38
2022-08-12T18:07:37.177Z,100349.88
2022-08-12T18:10:07.278Z,100344.16
2022-08-12T18:12:40.228Z,100355.50
2022-08-12T18:15:26.083Z,100360.22
2022-08-12T18:17:59.904Z,100360.53
2022-08-12T18:20:29.030Z,100358.91
2022-08-12T18:22:59.434Z,100357.75
2022-08-12T18:26:13.861Z,100358.72
2022-08-12T18:28:36.744Z,100368.53
2022-08-12T18:31:04.536Z,100366.72
2022-08-12T18:33:43.791Z,100377.84
2022-08-12T18:36:13.533Z,100378.94
2022-08-12T18:38:41.439Z,100381.69
2022-08-12T18:41:30.615Z,100382.87
2022-08-12T18:44:11.470Z,100388.22
2022-08-12T18:46:55.591Z,100389.34
2022-08-12T18:49:33.473Z,100403.06
2022-08-12T18:52:05.717Z,100397.69
2022-08-12T18:54:41.446Z,100378.94
2022-08-12T18:57:45.476Z,100396.69
2022-08-12T19:00:07.713Z,100401.34
2022-08-12T19:02:40.298Z,100406.72
2022-08-12T19:05:10.778Z,100407.22
2022-08-12T19:07:49.264Z,100406.75
2022-08-12T19:10:26.160Z,100397.56
2022-08-12T19:13:18.564Z,100400.16
2022-08-12T19:15:50.371Z,100408.38
2022-08-12T19:18:17.767Z,100410.59
2022-08-12T19:20:50.717Z,100409.59
2022-08-12T19:23:21.485Z,100411.00
2022-08-12T19:26:01.567Z,100421.81
2022-08-12T19:28:34.771Z,100412.94
2022-08-12T19:31:57.153Z,100416.53
2022-08-12T19:37:27.830Z,100421.00
2022-08-12T19:40:31.022Z,100415.03
2022-08-12T19:43:19.136Z,100419.31
2022-08-12T19:45:53.644Z,100421.72
2022-08-12T19:48:22.883Z,100428.53
2022-08-12T19:50:53.378Z,100429.72
2022-08-12T19:53:22.745Z,100433.31
2022-08-12T19:55:54.221Z,100441.31
2022-08-12T19:58:22.771Z,100434.84
2022-08-12T20:00:52.788Z,100433.81
2022-08-12T20:03:37.937Z,100428.34
2022-08-12T20:06:15.949Z,100435.84
2022-08-12T20:08:56.019Z,100438.41
2022-08-12T20:12:13.146Z,100436.03
2022-08-12T20:14:18.927Z,100438.25
2022-08-12T20:16:53.193Z,100453.91
2022-08-12T20:19:52.500Z,100456.22
2022-08-12T20:22:23.979Z,100448.03
2022-08-12T20:24:57.028Z,100457.06
2022-08-12T20:27:28.690Z,100444.28
2022-08-12T20:30:13.901Z,100452.22
2022-08-12T20:33:18.814Z,100454.63
2022-08-12T20:36:06.851Z,100475.19
2022-08-12T20:38:39.795Z,100470.72
2022-08-12T20:41:16.448Z,100460.22
2022-08-12T20:43:49.400Z,100452.22
2022-08-12T20:46:19.254Z,100458.06
2022-08-12T20:48:54.872Z,100456.72
2022-08-12T20:51:27.590Z,100453.66
2022-08-12T20:53:58.909Z,100465.91
2022-08-12T20:56:33.086Z,100467.94
2022-08-12T20:59:06.745Z,100483.94
2022-08-12T21:01:46.397Z,100497.47
2022-08-12T21:04:33.143Z,100484.81
2022-08-12T21:07:04.724Z,100483.19
2022-08-12T21:09:42.234Z,100469.09
2022-08-12T21:12:37.521Z,100479.16
2022-08-12T21:15:23.944Z,100482.50
2022-08-12T21:18:08.057Z,100477.87
2022-08-12T21:20:36.892Z,100455.59
2022-08-12T21:23:06.304Z,100450.47
2022-08-12T21:25:44.500Z,100461.91
2022-08-12T21:28:13.556Z,100448.88
2022-08-12T21:31:11.204Z,100454.75
2022-08-12T21:33:32.018Z,100446.56
2022-08-12T21:36:14.494Z,100454.50
2022-08-12T21:39:20.908Z,100458.19
2022-08-12T21:41:53.519Z,100486.84
2022-08-12T21:44:32.603Z,100480.78
2022-08-12T21:47:19.818Z,100473.97
2022-08-12T21:49:53.737Z,100466.28
2022-08-12T21:52:34.216Z,100479.41
2022-08-12T21:55:03.791Z,100486.03
2022-08-12T21:57:36.413Z,100497.66
2022-08-12T22:00:19.039Z,100499.72
2022-08-12T22:03:04.778Z,100496.12
2022-08-12T22:05:50.261Z,100485.41
2022-08-12T22:08:22.324Z,100489.03
2022-08-12T22:10:52.769Z,100483.50
2022-08-12T22:14:07.682Z,100483.72
2022-08-12T22:16:15.884Z,100492.91
2022-08-12T22:18:50.630Z,100486.72
2022-08-12T22:21:19.674Z,100485.41
2022-08-12T22:24:05.168Z,100483.09
2022-08-12T22:26:37.948Z,100474.44
2022-08-12T22:29:26.750Z,100484.03
2022-08-12T22:31:55.489Z,100486.25
2022-08-12T22:34:29.339Z,100473.44
2022-08-12T22:36:57.450Z,100469.69
2022-08-12T22:39:26.385Z,100465.28
2022-08-12T22:42:12.257Z,100465.16
2022-08-12T22:44:57.611Z,100446.22
2022-08-12T22:47:45.826Z,100461.31
2022-08-12T22:50:26.822Z,100449.94
2022-08-12T22:53:14.589Z,100444.50
2022-08-12T22:56:06.322Z,100446.19
2022-08-12T22:58:42.217Z,100446.19
2022-08-12T23:01:13.802Z,100450.25
2022-08-12T23:03:50.979Z,100455.38
2022-08-12T23:06:23.782Z,100447.06
2022-08-12T23:08:52.100Z,100444.22
2022-08-12T23:11:23.986Z,100449.16
2022-08-12T23:14:03.527Z,100439.47
2022-08-12T23:16:34.128Z,100441.69
2022-08-12T23:19:10.569Z,100432.03
2022-08-12T23:22:04.942Z,100436.34
2022-08-12T23:24:56.318Z,100442.50
2022-08-12T23:27:51.914Z,100427.69
2022-08-12T23:30:31.649Z,100432.97
2022-08-12T23:33:13.470Z,100435.53
2022-08-12T23:35:59.347Z,100424.47
2022-08-12T23:38:32.759Z,100425.50
2022-08-12T23:41:01.687Z,100426.72
2022-08-12T23:43:38.371Z,100409.00
2022-08-12T23:46:08.619Z,100399.94
2022-08-12T23:48:35.809Z,100411.25
2022-08-12T23:51:21.675Z,100406.66
2022-08-12T23:53:52.914Z,100409.19
2022-08-12T23:56:23.752Z,100411.56
2022-08-12T23:58:52.858Z,100411.03
